Terminal Aerodrome Forecast
Issued by NWS Twin Cities, MN

Home | Current Version | Previous Version | Text Only | Print | Product List | Glossary Off
Versions: 1 2 3 4 5 6 7 8 9 10 11 12 13 14

000
FTUS43 KMPX 210520
TAFSTC
TAF
KSTC 210520Z 2106/2206 VRB03KT P6SM FEW250
     FM211600 16009KT P6SM VCSH SCT050 BKN110
     FM212100 16011G17KT P6SM BKN050 OVC090
     FM220100 15006KT P6SM OVC050=

USA.gov is the U.S. government's official web portal to all federal, state and local government web resources and services.